Terminal Aerodrome Forecast
Issued by NWS Green Bay, WI

Home | Current Version | Previous Version | Graphics & Text | Print | Product List | Glossary On
Versions: 1 2 3 4 5 6 7 8 9 10 11 12 13 14 15 16 17 18 19 20 21 22 23 24 25 26 27 28 29 30 31 32 33 34 35 36
277
FTUS43 KGRB 262331
TAFGRB
TAF
KGRB 262331Z 2700/2724 32010G15KT P6SM SCT020 BKN040
      TEMPO 2700/2702 6SM -SHRA BKN020 BKN030
     FM270400 31006KT P6SM SCT050
     FM271200 28006KT P6SM SKC
     FM271900 27010KT P6SM SCT070
     FM272200 24010KT P6SM SCT200=

USA.gov is the U.S. government's official web portal to all federal, state and local government web resources and services.